createdAt,value
2018-03-14T00:01:54.623Z,4.05
2018-03-14T00:04:22.627Z,5.35
2018-03-14T00:06:50.596Z,6.22
2018-03-14T00:09:18.636Z,3.17
2018-03-14T00:11:46.633Z,4.82
2018-03-14T00:14:14.622Z,4.05
2018-03-14T00:16:42.541Z,5.60
2018-03-14T00:19:10.418Z,5.22
2018-03-14T00:21:38.295Z,6.00
2018-03-14T00:24:06.175Z,5.65
2018-03-14T00:26:34.083Z,5.30
2018-03-14T00:29:01.972Z,7.40
2018-03-14T00:31:29.875Z,10.18
2018-03-14T00:33:57.751Z,5.80
2018-03-14T00:36:25.618Z,6.30
2018-03-14T00:38:53.535Z,5.37
2018-03-14T00:41:21.419Z,8.18
2018-03-14T00:43:49.302Z,7.97
2018-03-14T00:46:17.175Z,9.32
2018-03-14T00:48:45.059Z,8.60
2018-03-14T00:51:12.942Z,11.50
2018-03-14T00:53:40.818Z,8.05
2018-03-14T00:56:08.713Z,8.38
2018-03-14T00:58:36.609Z,8.02
2018-03-14T01:01:04.475Z,8.95
2018-03-14T01:03:32.351Z,8.20
2018-03-14T01:06:00.247Z,7.90
2018-03-14T01:08:28.125Z,9.75
2018-03-14T01:10:56.012Z,7.35
2018-03-14T01:13:23.903Z,7.03
2018-03-14T01:15:51.785Z,9.85
2018-03-14T01:18:19.683Z,7.65
2018-03-14T01:20:48.658Z,5.45
2018-03-14T01:23:16.543Z,6.70
2018-03-14T01:25:44.448Z,5.78
2018-03-14T01:28:12.306Z,5.47
2018-03-14T01:30:40.188Z,6.37
2018-03-14T01:33:08.081Z,5.68
2018-03-14T01:35:35.946Z,3.85
2018-03-14T01:38:03.827Z,5.55
2018-03-14T01:40:32.731Z,7.80
2018-03-14T01:43:00.611Z,6.45
2018-03-14T01:45:28.515Z,5.22
2018-03-14T01:47:56.398Z,7.75
2018-03-14T01:50:24.287Z,6.97
2018-03-14T01:52:58.167Z,8.27
2018-03-14T01:55:26.083Z,7.78
2018-03-14T01:57:53.960Z,5.85
2018-03-14T02:00:21.836Z,6.43
2018-03-14T02:02:49.738Z,7.40
2018-03-14T02:05:17.629Z,6.32
2018-03-14T02:07:45.483Z,7.32
2018-03-14T02:10:13.389Z,7.60
2018-03-14T02:12:41.264Z,7.05
2018-03-14T02:15:09.134Z,11.40
2018-03-14T02:17:37.032Z,6.68
2018-03-14T02:20:04.926Z,6.87
2018-03-14T02:22:32.814Z,6.47
2018-03-14T02:25:00.718Z,8.13
2018-03-14T02:27:28.603Z,7.35
2018-03-14T02:29:56.495Z,9.00
2018-03-14T02:32:24.399Z,8.18
2018-03-14T02:34:52.286Z,8.60
2018-03-14T02:37:20.161Z,5.15
2018-03-14T02:39:48.056Z,7.20
2018-03-14T02:42:15.936Z,9.05
2018-03-14T02:44:43.810Z,8.30
2018-03-14T02:47:11.680Z,6.35
2018-03-14T02:49:39.554Z,8.45
2018-03-14T02:52:07.414Z,5.60
2018-03-14T02:54:36.347Z,8.10
2018-03-14T02:57:04.230Z,8.77
2018-03-14T02:59:32.103Z,6.05
2018-03-14T03:01:59.988Z,5.95
2018-03-14T03:04:27.871Z,7.93
2018-03-14T03:06:55.735Z,6.55
2018-03-14T03:09:23.618Z,5.72
2018-03-14T03:11:51.490Z,6.57
2018-03-14T03:14:19.355Z,7.05
2018-03-14T03:16:47.262Z,8.93
2018-03-14T03:19:15.138Z,7.87
2018-03-14T03:21:43.010Z,9.63
2018-03-14T03:24:10.901Z,5.43
2018-03-14T03:26:38.764Z,6.30
2018-03-14T03:29:06.635Z,6.95
2018-03-14T03:31:34.524Z,8.00
2018-03-14T03:34:02.416Z,7.70
2018-03-14T03:36:30.294Z,6.37
2018-03-14T03:38:58.166Z,10.65
2018-03-14T03:41:27.071Z,6.10
2018-03-14T03:43:54.975Z,7.68
2018-03-14T03:46:22.859Z,7.90
2018-03-14T03:48:50.728Z,6.97
2018-03-14T03:51:18.607Z,7.43
2018-03-14T03:53:46.490Z,7.60
2018-03-14T03:56:14.363Z,8.32
2018-03-14T03:58:42.243Z,11.30
2018-03-14T04:01:10.118Z,8.52
2018-03-14T04:03:37.987Z,7.05
2018-03-14T04:06:05.868Z,6.05
2018-03-14T04:08:33.739Z,7.35
2018-03-14T04:11:01.631Z,6.62
2018-03-14T04:13:29.526Z,8.07
2018-03-14T04:15:57.394Z,7.95
2018-03-14T04:18:25.260Z,8.80
2018-03-14T04:20:53.171Z,7.22
2018-03-14T04:23:21.037Z,9.75
2018-03-14T04:25:48.909Z,6.50
2018-03-14T04:28:16.772Z,8.70
2018-03-14T04:30:44.667Z,9.15
2018-03-14T04:33:12.543Z,13.45
2018-03-14T04:35:40.407Z,10.85
2018-03-14T04:38:08.355Z,14.50
2018-03-14T04:40:36.253Z,6.87
2018-03-14T04:43:04.136Z,9.82
2018-03-14T04:45:32.023Z,12.77
2018-03-14T04:47:59.904Z,10.52
2018-03-14T04:50:27.784Z,9.85
2018-03-14T04:52:55.667Z,10.82
2018-03-14T04:55:23.559Z,10.73
2018-03-14T04:57:51.427Z,16.33
2018-03-14T05:00:19.327Z,8.60
2018-03-14T05:02:47.219Z,8.95
2018-03-14T05:05:15.083Z,12.82
2018-03-14T05:07:42.979Z,11.15
2018-03-14T05:10:10.884Z,17.92
2018-03-14T05:12:38.760Z,11.35
2018-03-14T05:15:06.654Z,10.18
2018-03-14T05:17:34.549Z,11.32
2018-03-14T05:20:03.460Z,7.47
2018-03-14T05:22:31.343Z,12.05
2018-03-14T05:24:59.216Z,11.95
2018-03-14T05:27:27.107Z,13.32
2018-03-14T05:29:54.982Z,12.10
2018-03-14T05:32:22.862Z,10.48
2018-03-14T05:34:50.734Z,9.60
2018-03-14T05:37:18.620Z,12.20
2018-03-14T05:39:46.484Z,12.50
2018-03-14T05:42:14.340Z,10.95
2018-03-14T05:44:42.223Z,11.23
2018-03-14T05:47:10.091Z,11.15
2018-03-14T05:49:37.993Z,16.45
2018-03-14T05:52:05.900Z,10.82
2018-03-14T05:54:33.759Z,13.38
2018-03-14T05:57:01.647Z,11.02
2018-03-14T05:59:29.534Z,12.85
2018-03-14T06:01:58.458Z,16.90
2018-03-14T06:04:26.327Z,17.00
2018-03-14T06:06:54.221Z,11.63
2018-03-14T06:09:22.067Z,16.52
2018-03-14T06:11:49.958Z,10.23
2018-03-14T06:14:17.905Z,11.65
2018-03-14T06:16:45.762Z,16.55
2018-03-14T06:19:13.635Z,11.40
2018-03-14T06:21:41.531Z,11.23
2018-03-14T06:24:09.391Z,11.93
2018-03-14T06:26:37.279Z,9.85
2018-03-14T06:29:05.159Z,12.68
2018-03-14T06:31:33.037Z,12.70
2018-03-14T06:34:00.907Z,12.13
2018-03-14T06:36:28.794Z,15.80
2018-03-14T06:38:56.671Z,9.98
2018-03-14T06:41:24.557Z,9.13
2018-03-14T06:43:52.542Z,9.73
2018-03-14T06:46:20.410Z,11.00
2018-03-14T06:48:48.315Z,12.43
2018-03-14T06:51:16.351Z,10.73
2018-03-14T06:53:44.215Z,10.48
2018-03-14T06:56:12.114Z,10.10
2018-03-14T06:58:46.142Z,11.50
2018-03-14T07:01:18.970Z,11.68
2018-03-14T07:03:47.896Z,8.73
2018-03-14T07:06:15.774Z,14.68
2018-03-14T07:08:43.651Z,12.25
2018-03-14T07:11:11.519Z,12.45
2018-03-14T07:13:39.387Z,11.82
2018-03-14T07:16:07.267Z,11.45
2018-03-14T07:18:35.150Z,13.50
2018-03-14T07:21:03.050Z,14.00
2018-03-14T07:23:31.907Z,11.07
2018-03-14T07:25:59.786Z,12.77
2018-03-14T07:28:27.687Z,12.43
2018-03-14T07:30:55.627Z,13.10
2018-03-14T07:33:23.504Z,13.23
2018-03-14T07:35:51.391Z,11.55
2018-03-14T07:38:19.255Z,12.20
2018-03-14T07:40:47.147Z,7.30
2018-03-14T07:43:15.043Z,10.80
2018-03-14T07:45:43.963Z,11.68
2018-03-14T07:48:11.852Z,11.15
2018-03-14T07:50:39.762Z,10.40
2018-03-14T07:53:07.631Z,11.43
2018-03-14T07:55:35.604Z,13.00
2018-03-14T07:58:03.584Z,12.07
2018-03-14T08:00:31.580Z,13.10
2018-03-14T08:02:59.605Z,11.40
2018-03-14T08:05:27.604Z,9.63
2018-03-14T08:07:55.606Z,9.00
2018-03-14T08:10:23.588Z,14.55
2018-03-14T08:12:51.579Z,11.63
2018-03-14T08:15:19.552Z,11.48
2018-03-14T08:17:47.547Z,12.77
2018-03-14T08:20:15.556Z,14.18
2018-03-14T08:22:43.537Z,11.63
2018-03-14T08:25:11.555Z,13.10
2018-03-14T08:27:39.551Z,12.60
2018-03-14T08:30:08.649Z,15.70
2018-03-14T08:32:36.630Z,13.13
2018-03-14T08:35:04.623Z,13.32
2018-03-14T08:37:32.771Z,12.35
2018-03-14T08:40:00.824Z,14.15
2018-03-14T08:42:28.831Z,12.70
2018-03-14T08:44:56.827Z,14.13
2018-03-14T08:47:24.856Z,13.80
2018-03-14T08:49:52.845Z,12.80
2018-03-14T08:52:20.843Z,13.00
2018-03-14T08:54:48.804Z,12.23
2018-03-14T08:57:17.784Z,9.97
2018-03-14T08:59:45.805Z,14.37
2018-03-14T09:02:13.956Z,12.57
2018-03-14T09:04:41.959Z,11.70
2018-03-14T09:07:10.168Z,11.40
2018-03-14T09:09:38.211Z,11.30
2018-03-14T09:12:06.198Z,13.43
2018-03-14T09:14:34.189Z,11.03
2018-03-14T09:17:02.220Z,11.43
2018-03-14T09:19:30.191Z,11.70
2018-03-14T09:21:59.184Z,12.73
2018-03-14T09:24:27.175Z,10.67
2018-03-14T09:26:55.120Z,9.83
2018-03-14T09:29:23.092Z,9.87
2018-03-14T09:31:51.092Z,10.47
2018-03-14T09:34:19.073Z,15.73
2018-03-14T09:36:47.058Z,8.73
2018-03-14T09:39:15.071Z,11.33
2018-03-14T09:41:43.084Z,11.83
2018-03-14T09:44:11.100Z,11.30
2018-03-14T09:46:40.162Z,11.70
2018-03-14T09:49:08.145Z,9.68
2018-03-14T09:51:37.150Z,11.13
2018-03-14T09:54:05.156Z,8.75
2018-03-14T09:56:33.140Z,13.30
2018-03-14T09:59:01.136Z,10.50
2018-03-14T10:01:29.143Z,8.77
2018-03-14T10:03:57.133Z,10.23
2018-03-14T10:06:25.145Z,10.60
2018-03-14T10:08:53.147Z,10.13
2018-03-14T10:11:21.119Z,11.27
2018-03-14T10:13:49.063Z,10.57
2018-03-14T10:16:17.018Z,10.37
2018-03-14T10:18:45.025Z,9.23
2018-03-14T10:21:13.003Z,11.10
2018-03-14T10:23:41.017Z,9.43
2018-03-14T10:26:10.384Z,9.50
2018-03-14T10:28:38.660Z,10.00
2018-03-14T10:31:06.880Z,12.10
2018-03-14T10:33:34.944Z,13.90
2018-03-14T10:36:02.940Z,13.10
2018-03-14T10:38:30.952Z,8.63
2018-03-14T10:40:58.967Z,9.07
2018-03-14T10:43:26.928Z,7.30
2018-03-14T10:45:54.905Z,8.30
2018-03-14T10:48:22.974Z,8.60
2018-03-14T10:50:50.949Z,10.13
2018-03-14T10:53:18.940Z,12.07
2018-03-14T10:55:47.714Z,8.50
2018-03-14T10:58:15.651Z,13.73
2018-03-14T11:00:49.843Z,8.73
2018-03-14T11:03:17.841Z,8.63
2018-03-14T11:05:45.813Z,8.07
2018-03-14T11:08:13.755Z,7.67
2018-03-14T11:10:41.755Z,9.30
2018-03-14T11:13:09.773Z,9.57
2018-03-14T11:15:37.793Z,9.43
2018-03-14T11:18:05.825Z,7.97
2018-03-14T11:20:33.841Z,11.37
2018-03-14T11:23:01.853Z,13.67
2018-03-14T11:25:29.861Z,11.67
2018-03-14T11:27:57.844Z,8.10
2018-03-14T11:30:25.920Z,9.27
2018-03-14T11:32:53.907Z,12.27
2018-03-14T11:35:21.920Z,10.90
2018-03-14T11:37:49.908Z,10.23
2018-03-14T11:40:19.748Z,10.73
2018-03-14T11:42:47.800Z,8.73
2018-03-14T11:45:15.864Z,10.20
2018-03-14T11:47:43.853Z,11.93
2018-03-14T11:50:11.848Z,12.40
2018-03-14T11:52:39.817Z,7.83
2018-03-14T11:55:07.800Z,8.50
2018-03-14T11:57:35.800Z,9.60
2018-03-14T12:00:03.792Z,10.60
2018-03-14T12:02:31.812Z,13.13
2018-03-14T12:04:59.785Z,8.00
2018-03-14T12:07:27.829Z,11.13
2018-03-14T12:09:55.840Z,9.87
2018-03-14T12:12:23.865Z,7.77
2018-03-14T12:14:51.908Z,8.00
2018-03-14T12:17:19.882Z,7.63
2018-03-14T12:19:47.892Z,11.73
2018-03-14T12:22:21.876Z,10.37
2018-03-14T12:24:50.916Z,8.60
2018-03-14T12:27:19.948Z,7.50
2018-03-14T12:29:48.968Z,7.97
2018-03-14T12:32:17.007Z,11.60
2018-03-14T12:34:45.038Z,7.43
2018-03-14T12:37:12.982Z,8.37
2018-03-14T12:39:40.947Z,6.80
2018-03-14T12:42:09.031Z,8.73
2018-03-14T12:44:37.038Z,9.50
2018-03-14T12:47:05.070Z,8.57
2018-03-14T12:49:33.036Z,10.40
2018-03-14T12:52:01.020Z,9.27
2018-03-14T12:54:29.063Z,9.00
2018-03-14T12:56:57.047Z,9.20
2018-03-14T12:59:25.064Z,8.90
2018-03-14T13:01:53.060Z,8.30
2018-03-14T13:04:21.062Z,11.50
2018-03-14T13:06:49.060Z,9.17
2018-03-14T13:09:17.032Z,6.70
2018-03-14T13:11:45.071Z,8.67
2018-03-14T13:14:13.044Z,9.77
2018-03-14T13:16:41.073Z,14.00
2018-03-14T13:19:09.052Z,8.77
2018-03-14T13:21:37.057Z,8.70
2018-03-14T13:24:05.047Z,10.13
2018-03-14T13:26:33.039Z,7.83
2018-03-14T13:29:01.048Z,9.20
2018-03-14T13:31:29.040Z,7.07
2018-03-14T13:33:57.053Z,7.37
2018-03-14T13:36:25.052Z,10.03
2018-03-14T13:38:53.083Z,6.63
2018-03-14T13:41:21.113Z,9.10
2018-03-14T13:43:49.075Z,8.27
2018-03-14T13:46:17.087Z,7.70
2018-03-14T13:48:45.062Z,9.23
2018-03-14T13:51:13.029Z,8.60
2018-03-14T13:53:41.005Z,9.47
2018-03-14T13:56:09.000Z,12.80
2018-03-14T13:58:36.980Z,6.70
2018-03-14T14:01:05.000Z,6.90
2018-03-14T14:03:32.972Z,7.80
2018-03-14T14:06:00.992Z,12.10
2018-03-14T14:08:29.002Z,9.50
2018-03-14T14:10:58.028Z,7.50
2018-03-14T14:13:26.004Z,7.17
2018-03-14T14:15:54.027Z,7.50
2018-03-14T14:18:21.987Z,7.63
2018-03-14T14:20:49.998Z,9.00
2018-03-14T14:23:18.032Z,9.77
2018-03-14T14:25:46.004Z,10.33
2018-03-14T14:28:13.971Z,8.07
2018-03-14T14:30:41.971Z,8.83
2018-03-14T14:33:09.976Z,7.53
2018-03-14T14:35:38.013Z,9.93
2018-03-14T14:38:05.966Z,6.93
2018-03-14T14:40:33.937Z,8.13
2018-03-14T14:43:01.921Z,8.50
2018-03-14T14:45:29.933Z,8.80
2018-03-14T14:47:57.932Z,10.20
2018-03-14T14:50:25.878Z,11.73
2018-03-14T14:52:53.880Z,11.13
2018-03-14T14:55:21.881Z,7.97
2018-03-14T14:57:49.844Z,9.73
2018-03-14T15:00:17.838Z,11.07
2018-03-14T15:02:45.776Z,7.63
2018-03-14T15:05:13.793Z,10.53
2018-03-14T15:07:41.757Z,7.70
2018-03-14T15:10:09.756Z,10.27
2018-03-14T15:12:37.705Z,7.73
2018-03-14T15:15:05.718Z,9.43
2018-03-14T15:17:33.743Z,7.37
2018-03-14T15:20:01.698Z,7.63
2018-03-14T15:22:29.696Z,8.23
2018-03-14T15:24:57.675Z,10.80
2018-03-14T15:27:25.632Z,7.80
2018-03-14T15:29:53.625Z,6.90
2018-03-14T15:32:21.604Z,8.57
2018-03-14T15:34:49.596Z,14.50
2018-03-14T15:37:17.620Z,11.50
2018-03-14T15:39:45.576Z,8.57
2018-03-14T15:42:13.629Z,11.70
2018-03-14T15:44:41.644Z,7.90
2018-03-14T15:47:09.596Z,8.27
2018-03-14T15:49:37.589Z,8.33
2018-03-14T15:52:05.557Z,7.67
2018-03-14T15:54:33.548Z,6.77
2018-03-14T15:57:01.547Z,7.53
2018-03-14T15:59:29.530Z,9.07
2018-03-14T16:01:57.557Z,9.23
2018-03-14T16:04:25.575Z,8.33
2018-03-14T16:06:53.582Z,11.57
2018-03-14T16:09:21.548Z,16.97
2018-03-14T16:11:49.540Z,9.40
2018-03-14T16:14:17.568Z,9.70
2018-03-14T16:16:45.556Z,9.30
2018-03-14T16:19:13.524Z,11.73
2018-03-14T16:21:41.507Z,12.57
2018-03-14T16:24:09.499Z,12.77
2018-03-14T16:26:37.527Z,13.43
2018-03-14T16:29:05.528Z,9.23
2018-03-14T16:31:33.516Z,13.37
2018-03-14T16:34:16.447Z,11.27
2018-03-14T16:36:44.528Z,13.37
2018-03-14T16:39:12.627Z,15.50
2018-03-14T16:41:40.653Z,10.90
2018-03-14T16:44:08.662Z,14.23
2018-03-14T16:46:36.626Z,15.67
2018-03-14T16:49:04.689Z,13.40
2018-03-14T16:51:32.677Z,11.80
2018-03-14T16:54:00.631Z,9.60
2018-03-14T16:56:28.630Z,10.47
2018-03-14T16:58:56.610Z,11.00
2018-03-14T17:01:24.619Z,11.83
2018-03-14T17:03:52.663Z,10.40
2018-03-14T17:06:21.188Z,11.83
2018-03-14T17:08:50.064Z,11.63
2018-03-14T17:11:18.053Z,12.07
2018-03-14T17:13:46.022Z,14.03
2018-03-14T17:16:14.009Z,12.73
2018-03-14T17:18:42.089Z,13.20
2018-03-14T17:21:10.085Z,11.73
2018-03-14T17:23:38.147Z,9.80
2018-03-14T17:26:06.152Z,10.23
2018-03-14T17:28:34.180Z,12.70
2018-03-14T17:31:02.166Z,10.20
2018-03-14T17:33:30.156Z,11.20
2018-03-14T17:35:58.157Z,15.00
2018-03-14T17:38:26.235Z,12.90
2018-03-14T17:40:54.261Z,13.60
2018-03-14T17:43:22.287Z,15.90
2018-03-14T17:45:50.293Z,13.43
2018-03-14T17:48:18.273Z,12.05
2018-03-14T17:50:46.272Z,12.48
2018-03-14T17:53:14.246Z,14.38
2018-03-14T17:55:42.236Z,10.93
2018-03-14T17:58:10.225Z,10.60
2018-03-14T18:00:38.221Z,10.80
2018-03-14T18:03:06.252Z,10.20
2018-03-14T18:05:34.265Z,8.52
2018-03-14T18:08:02.276Z,12.93
2018-03-14T18:10:30.259Z,11.60
2018-03-14T18:12:58.291Z,10.73
2018-03-14T18:15:26.300Z,11.40
2018-03-14T18:17:54.293Z,12.18
2018-03-14T18:20:22.284Z,9.35
2018-03-14T18:22:50.319Z,12.60
2018-03-14T18:25:18.297Z,13.88
2018-03-14T18:27:46.296Z,10.75
2018-03-14T18:30:14.309Z,15.18
2018-03-14T18:32:42.312Z,12.15
2018-03-14T18:35:10.340Z,12.23
2018-03-14T18:37:38.338Z,14.23
2018-03-14T18:40:06.316Z,16.45
2018-03-14T18:42:34.360Z,14.20
2018-03-14T18:45:02.336Z,11.68
2018-03-14T18:47:30.348Z,11.68
2018-03-14T18:49:58.312Z,17.40
2018-03-14T18:52:26.312Z,13.60
2018-03-14T18:54:54.263Z,12.50
2018-03-14T18:57:22.252Z,14.43
2018-03-14T18:59:50.216Z,15.07
2018-03-14T19:02:18.196Z,14.10
2018-03-14T19:04:46.228Z,16.37
2018-03-14T19:07:14.207Z,13.40
2018-03-14T19:09:42.204Z,14.60
2018-03-14T19:12:10.176Z,15.45
2018-03-14T19:14:38.168Z,21.05
2018-03-14T19:17:06.164Z,19.90
2018-03-14T19:19:34.244Z,17.23
2018-03-14T19:22:03.236Z,21.25
2018-03-14T19:24:31.225Z,16.75
2018-03-14T19:26:59.221Z,17.50
2018-03-14T19:29:27.210Z,20.45
2018-03-14T19:31:55.186Z,19.87
2018-03-14T19:34:23.204Z,22.48
2018-03-14T19:36:51.201Z,21.65
2018-03-14T19:39:19.183Z,18.77
2018-03-14T19:41:47.156Z,19.35
2018-03-14T19:44:15.201Z,19.23
2018-03-14T19:46:43.212Z,17.83
2018-03-14T19:49:11.228Z,24.02
2018-03-14T19:51:39.164Z,15.32
2018-03-14T19:54:07.136Z,20.50
2018-03-14T19:56:35.196Z,13.57
2018-03-14T19:59:03.248Z,15.98
2018-03-14T20:01:31.270Z,19.10
2018-03-14T20:03:59.297Z,17.25
2018-03-14T20:06:27.296Z,19.90
2018-03-14T20:08:55.355Z,18.05
2018-03-14T20:11:23.276Z,16.25
2018-03-14T20:13:51.250Z,15.90
2018-03-14T20:16:19.224Z,18.08
2018-03-14T20:18:47.230Z,17.70
2018-03-14T20:21:15.608Z,18.50
2018-03-14T20:23:43.611Z,20.80
2018-03-14T20:26:11.625Z,21.15
2018-03-14T20:28:39.636Z,22.05
2018-03-14T20:31:07.696Z,21.85
2018-03-14T20:33:35.631Z,19.33
2018-03-14T20:36:03.619Z,20.80
2018-03-14T20:38:31.672Z,18.40
2018-03-14T20:40:59.611Z,17.83
2018-03-14T20:43:29.480Z,20.05
2018-03-14T20:45:57.645Z,21.45
2018-03-14T20:48:25.816Z,15.10
2018-03-14T20:50:53.787Z,17.23
2018-03-14T20:53:21.795Z,12.40
2018-03-14T20:55:49.780Z,15.18
2018-03-14T20:58:17.784Z,16.08
2018-03-14T21:00:45.841Z,22.33
2018-03-14T21:03:13.828Z,16.23
2018-03-14T21:05:41.820Z,18.45
2018-03-14T21:08:09.871Z,17.35
2018-03-14T21:10:37.876Z,14.48
2018-03-14T21:13:05.894Z,15.70
2018-03-14T21:15:33.884Z,17.60
2018-03-14T21:18:01.869Z,14.75
2018-03-14T21:20:29.881Z,14.82
2018-03-14T21:22:57.904Z,14.50
2018-03-14T21:25:25.860Z,15.75
2018-03-14T21:27:53.850Z,13.70
2018-03-14T21:30:21.820Z,16.20
2018-03-14T21:32:50.076Z,17.62
2018-03-14T21:35:18.300Z,16.48
2018-03-14T21:37:46.302Z,18.20
2018-03-14T21:40:14.335Z,18.12
2018-03-14T21:42:42.312Z,16.05
2018-03-14T21:45:10.314Z,17.35
2018-03-14T21:47:38.276Z,18.02
2018-03-14T21:50:06.246Z,20.02
2018-03-14T21:52:34.363Z,15.43
2018-03-14T21:55:02.280Z,18.62
2018-03-14T21:57:30.261Z,14.52
2018-03-14T21:59:58.279Z,14.70
2018-03-14T22:02:26.308Z,21.90
2018-03-14T22:04:54.296Z,17.23
2018-03-14T22:07:22.291Z,18.65
2018-03-14T22:09:50.326Z,17.83
2018-03-14T22:12:18.320Z,18.42
2018-03-14T22:14:46.329Z,20.77
2018-03-14T22:17:14.298Z,18.27
2018-03-14T22:19:42.285Z,23.73
2018-03-14T22:22:10.309Z,21.45
2018-03-14T22:24:38.264Z,19.52
2018-03-14T22:27:06.245Z,19.52
2018-03-14T22:29:34.277Z,20.40
2018-03-14T22:32:02.256Z,19.15
2018-03-14T22:34:30.252Z,16.67
2018-03-14T22:36:58.383Z,20.12
2018-03-14T22:39:26.340Z,18.15
2018-03-14T22:41:54.511Z,23.98
2018-03-14T22:44:22.504Z,23.38
2018-03-14T22:46:50.447Z,17.73
2018-03-14T22:49:18.371Z,22.85
2018-03-14T22:51:46.363Z,20.73
2018-03-14T22:54:14.344Z,19.90
2018-03-14T22:56:42.300Z,21.60
2018-03-14T22:59:10.333Z,18.50
2018-03-14T23:01:38.312Z,19.87
2018-03-14T23:04:06.340Z,18.92
2018-03-14T23:06:34.382Z,26.20
2018-03-14T23:09:02.411Z,19.17
2018-03-14T23:11:30.370Z,22.23
2018-03-14T23:13:58.344Z,16.35
2018-03-14T23:16:26.324Z,21.92
2018-03-14T23:18:54.335Z,19.00
2018-03-14T23:21:22.336Z,17.10
2018-03-14T23:23:50.311Z,23.40
2018-03-14T23:26:18.276Z,17.90
2018-03-14T23:28:46.301Z,16.92
2018-03-14T23:31:14.332Z,22.58
2018-03-14T23:33:42.330Z,19.48
2018-03-14T23:36:10.372Z,21.85
2018-03-14T23:38:38.361Z,15.57
2018-03-14T23:41:06.344Z,20.30
2018-03-14T23:43:34.348Z,15.40
2018-03-14T23:46:02.350Z,20.05
2018-03-14T23:48:30.308Z,16.90
2018-03-14T23:50:58.321Z,19.40
2018-03-14T23:53:26.303Z,20.35
2018-03-14T23:55:54.267Z,20.52
2018-03-14T23:58:22.313Z,20.23
